Time;durP1;ratioP1;P1;durP2;ratioP2;P2;SDS_P1;SDS_P2;PMS_P1;PMS_P2;Temp;Humidity;BMP_temperature;BMP_pressure;BME280_temperature;BME280_humidity;BME280_pressure;Samples;Min_cycle;Max_cycle;Signal;HPM_P1;HPM_P2
2022/05/10 00:00:04;;;;;;;30.70;17.83;;;;;;;;;;4982956;28;20113;-72
2022/05/10 00:02:30;;;;;;;29.80;18.48;;;;;;;;;;4987658;28;20264;-72
2022/05/10 00:04:59;;;;;;;31.17;19.30;;;;;;;;;;4984972;28;20026;-72
2022/05/10 00:07:25;;;;;;;32.00;16.95;;;;;;;;;;4963154;28;20104;-73
2022/05/10 00:09:50;;;;;;;26.40;17.40;;;;;;;;;;4988595;28;20040;-72
2022/05/10 00:12:15;;;;;;;26.27;17.63;;;;;;;;;;4983437;28;20362;-72
2022/05/10 00:14:41;;;;;;;29.00;17.83;;;;;;;;;;4988332;28;20030;-72
2022/05/10 00:17:06;;;;;;;36.47;17.80;;;;;;;;;;4984082;28;20189;-72
2022/05/10 00:19:31;;;;;;;30.45;19.10;;;;;;;;;;4987596;28;20783;-72
2022/05/10 00:21:57;;;;;;;27.47;18.00;;;;;;;;;;4989162;28;20387;-72
2022/05/10 00:24:23;;;;;;;30.90;19.02;;;;;;;;;;4983255;28;20022;-72
2022/05/10 00:26:48;;;;;;;32.22;19.27;;;;;;;;;;4977735;28;20037;-73
2022/05/10 00:29:13;;;;;;;32.30;18.60;;;;;;;;;;4984479;28;20035;-72
2022/05/10 00:31:38;;;;;;;31.67;18.70;;;;;;;;;;4987809;28;20303;-72
2022/05/10 00:34:04;;;;;;;28.33;18.65;;;;;;;;;;4981027;28;20025;-72
2022/05/10 00:36:30;;;;;;;31.10;19.15;;;;;;;;;;4984207;28;20125;-72
2022/05/10 00:38:55;;;;;;;31.73;18.98;;;;;;;;;;4988530;28;20038;-72
2022/05/10 00:41:24;;;;;;;27.17;16.70;;;;;;;;;;4984636;28;20495;-73
2022/05/10 00:43:52;;;;;;;32.92;19.92;;;;;;;;;;4987391;28;20611;-72
2022/05/10 00:46:24;;;;;;;31.27;19.15;;;;;;;;;;4984862;28;20037;-72
2022/05/10 00:49:11;;;;;;;37.92;19.50;;;;;;;;;;4981469;28;20440;-72
2022/05/10 00:51:45;;;;;;;34.15;19.95;;;;;;;;;;4982562;28;20022;-72
2022/05/10 00:54:10;;;;;;;;;;;;;;;;;;4983894;28;20049;-73
2022/05/10 00:56:47;;;;;;;32.15;18.25;;;;;;;;;;4984878;28;19917;-73
2022/05/10 00:59:18;;;;;;;31.20;20.05;;;;;;;;;;4981687;28;20387;-73
2022/05/10 01:01:44;;;;;;;35.83;20.60;;;;;;;;;;4983309;28;20069;-73
2022/05/10 01:04:23;;;;;;;28.88;18.35;;;;;;;;;;4984583;28;20027;-73
2022/05/10 01:06:57;;;;;;;36.22;19.45;;;;;;;;;;4983205;28;20030;-73
2022/05/10 01:09:22;;;;;;;;;;;;;;;;;;4985671;28;20030;-73
2022/05/10 01:11:58;;;;;;;37.08;21.08;;;;;;;;;;4981696;28;20370;-73
2022/05/10 01:14:28;;;;;;;41.88;21.90;;;;;;;;;;4983482;28;20120;-73
2022/05/10 01:16:53;;;;;;;35.42;21.13;;;;;;;;;;4980585;28;21511;-73
2022/05/10 01:19:18;;;;;;;35.92;21.75;;;;;;;;;;4988356;28;20445;-73
2022/05/10 01:22:03;;;;;;;42.00;23.57;;;;;;;;;;4984111;28;20102;-73
2022/05/10 01:24:46;;;;;;;36.85;22.73;;;;;;;;;;4984403;28;20271;-73
2022/05/10 01:27:18;;;;;;;35.92;21.95;;;;;;;;;;4983742;28;20078;-72
2022/05/10 01:29:48;;;;;;;37.88;21.23;;;;;;;;;;4984456;28;20022;-72
2022/05/10 01:35:01;;;;;;;38.10;21.48;;;;;;;;;;4979754;28;20088;-73
2022/05/10 01:37:28;;;;;;;37.70;21.33;;;;;;;;;;4978916;28;20049;-72
2022/05/10 01:40:12;;;;;;;41.58;22.30;;;;;;;;;;4986126;28;20026;-73
2022/05/10 01:42:40;;;;;;;41.75;22.98;;;;;;;;;;4986014;28;20068;-72
2022/05/10 01:45:09;;;;;;;41.90;23.15;;;;;;;;;;4982361;28;20053;-72
2022/05/10 01:47:37;;;;;;;37.47;21.85;;;;;;;;;;4988011;28;20034;-72
2022/05/10 01:50:20;;;;;;;40.83;21.52;;;;;;;;;;4986004;28;20034;-73
2022/05/10 01:52:45;;;;;;;38.00;22.10;;;;;;;;;;4986334;28;20030;-73
2022/05/10 01:55:16;;;;;;;43.63;24.50;;;;;;;;;;4982717;28;20018;-73
2022/05/10 01:57:41;;;;;;;41.80;23.17;;;;;;;;;;4985472;28;20272;-73
2022/05/10 02:00:09;;;;;;;36.55;22.67;;;;;;;;;;4983030;28;20132;-72
2022/05/10 02:02:36;;;;;;;39.97;24.65;;;;;;;;;;4986808;28;20048;-72
2022/05/10 02:05:03;;;;;;;43.33;23.05;;;;;;;;;;4983166;28;20381;-72
2022/05/10 02:07:29;;;;;;;40.60;23.85;;;;;;;;;;4983108;28;20609;-73
2022/05/10 02:10:06;;;;;;;45.03;24.52;;;;;;;;;;4982631;28;20105;-72
2022/05/10 02:12:52;;;;;;;43.78;24.45;;;;;;;;;;4978523;28;20476;-73
2022/05/10 02:15:20;;;;;;;40.55;23.95;;;;;;;;;;4982210;28;20041;-73
2022/05/10 02:17:54;;;;;;;48.47;24.67;;;;;;;;;;4979013;28;20034;-73
2022/05/10 02:20:19;;;;;;;;;;;;;;;;;;4979032;28;20030;-72
2022/05/10 02:22:53;;;;;;;48.78;23.30;;;;;;;;;;4981093;28;19925;-73
2022/05/10 02:25:24;;;;;;;46.13;24.48;;;;;;;;;;4983566;28;20026;-73
2022/05/10 02:27:54;;;;;;;48.70;23.73;;;;;;;;;;4959595;28;20035;-72
2022/05/10 02:30:21;;;;;;;44.13;24.15;;;;;;;;;;4977369;28;20117;-73
2022/05/10 02:33:07;;;;;;;42.83;25.05;;;;;;;;;;4978990;28;20034;-72
2022/05/10 02:35:44;;;;;;;41.97;23.52;;;;;;;;;;4982817;28;20057;-72
2022/05/10 02:38:11;;;;;;;43.92;25.02;;;;;;;;;;4982353;28;20054;-73
2022/05/10 02:40:41;;;;;;;42.47;24.67;;;;;;;;;;4990576;28;20073;-73
2022/05/10 02:43:07;;;;;;;44.95;24.83;;;;;;;;;;4982835;28;20503;-72
2022/05/10 02:45:33;;;;;;;41.92;23.27;;;;;;;;;;4980042;28;20030;-72
2022/05/10 02:48:00;;;;;;;40.47;24.75;;;;;;;;;;4981680;28;20030;-72
2022/05/10 02:50:27;;;;;;;44.95;26.00;;;;;;;;;;4986142;28;20468;-72
2022/05/10 02:52:53;;;;;;;43.75;24.85;;;;;;;;;;4984970;28;20029;-72
2022/05/10 02:55:21;;;;;;;46.60;24.60;;;;;;;;;;4988623;28;20018;-73
2022/05/10 02:57:48;;;;;;;43.78;22.90;;;;;;;;;;4982500;28;20034;-72
2022/05/10 03:00:14;;;;;;;46.80;24.13;;;;;;;;;;4982311;28;20042;-72
2022/05/10 03:02:40;;;;;;;44.80;24.85;;;;;;;;;;4983163;28;20034;-72
2022/05/10 03:05:07;;;;;;;43.05;24.08;;;;;;;;;;4984441;28;20026;-72
2022/05/10 03:07:33;;;;;;;42.85;25.17;;;;;;;;;;4988692;28;20017;-73
2022/05/10 03:09:58;;;;;;;50.63;25.23;;;;;;;;;;4987248;28;20646;-73
2022/05/10 03:12:23;;;;;;;51.47;26.13;;;;;;;;;;4982918;28;20280;-72
2022/05/10 03:14:48;;;;;;;49.58;26.45;;;;;;;;;;4978806;28;20484;-72
2022/05/10 03:17:13;;;;;;;53.70;26.23;;;;;;;;;;4980607;28;20022;-72
2022/05/10 03:19:39;;;;;;;54.70;26.23;;;;;;;;;;4977527;28;20026;-72
2022/05/10 03:22:05;;;;;;;47.97;26.20;;;;;;;;;;4983261;28;20081;-72
2022/05/10 03:24:31;;;;;;;48.40;26.08;;;;;;;;;;4984631;28;20022;-73
2022/05/10 03:26:57;;;;;;;55.45;28.23;;;;;;;;;;4983665;28;20114;-72
2022/05/10 03:29:22;;;;;;;54.47;27.50;;;;;;;;;;4967168;28;20475;-72
2022/05/10 03:31:47;;;;;;;55.88;28.50;;;;;;;;;;4989874;28;20065;-73
2022/05/10 03:36:56;;;;;;;54.97;27.25;;;;;;;;;;4991962;28;20072;-72
2022/05/10 03:39:21;;;;;;;54.35;27.75;;;;;;;;;;4987091;28;20118;-72
2022/05/10 03:41:47;;;;;;;44.83;26.33;;;;;;;;;;4985757;28;20539;-72
2022/05/10 03:44:12;;;;;;;50.67;26.43;;;;;;;;;;4984530;28;20348;-73
2022/05/10 03:46:37;;;;;;;52.50;28.08;;;;;;;;;;4984088;28;20614;-73
2022/05/10 03:49:03;;;;;;;51.08;25.90;;;;;;;;;;4982219;28;20535;-72
2022/05/10 03:51:28;;;;;;;52.97;28.38;;;;;;;;;;4980652;28;20484;-73
2022/05/10 03:53:54;;;;;;;54.13;28.60;;;;;;;;;;4985696;28;20112;-72
2022/05/10 03:56:19;;;;;;;50.30;26.67;;;;;;;;;;4987486;28;20065;-72
2022/05/10 03:58:44;;;;;;;53.05;27.55;;;;;;;;;;4992277;28;20260;-73
2022/05/10 04:01:09;;;;;;;52.85;27.67;;;;;;;;;;4990408;28;20475;-76
2022/05/10 04:03:35;;;;;;;48.83;27.00;;;;;;;;;;4990694;28;20022;-72
2022/05/10 04:06:00;;;;;;;53.88;28.02;;;;;;;;;;4993048;28;20342;-78
2022/05/10 04:08:25;;;;;;;51.67;27.83;;;;;;;;;;4973531;28;20050;-74
2022/05/10 04:10:50;;;;;;;52.72;26.77;;;;;;;;;;4984419;28;20022;-75
2022/05/10 04:13:15;;;;;;;53.10;28.10;;;;;;;;;;4985712;28;20030;-77
2022/05/10 04:15:41;;;;;;;48.20;26.20;;;;;;;;;;4983812;28;20053;-75
2022/05/10 04:18:06;;;;;;;51.45;27.00;;;;;;;;;;4984213;28;20754;-74
2022/05/10 04:20:31;;;;;;;52.70;28.00;;;;;;;;;;4981629;28;20053;-75
2022/05/10 04:22:58;;;;;;;56.73;27.80;;;;;;;;;;4996124;28;20034;-75
2022/05/10 04:25:25;;;;;;;53.50;28.38;;;;;;;;;;4983849;28;20433;-76
2022/05/10 04:27:51;;;;;;;55.10;27.90;;;;;;;;;;4981245;28;20722;-76
2022/05/10 04:30:16;;;;;;;47.00;27.35;;;;;;;;;;4979062;28;20034;-76
2022/05/10 04:32:42;;;;;;;54.67;29.98;;;;;;;;;;4983348;28;20027;-75
2022/05/10 04:35:07;;;;;;;55.57;29.30;;;;;;;;;;4984716;28;20096;-76
2022/05/10 04:37:32;;;;;;;60.78;29.85;;;;;;;;;;4988170;28;20312;-76
2022/05/10 04:42:45;;;;;;;61.20;31.55;;;;;;;;;;4989110;28;20068;-76
2022/05/10 04:45:10;;;;;;;60.25;31.13;;;;;;;;;;4986634;28;20034;-75
2022/05/10 04:47:35;;;;;;;58.42;31.13;;;;;;;;;;4987644;28;20085;-76
2022/05/10 04:50:01;;;;;;;61.97;32.10;;;;;;;;;;4979914;28;20416;-76
2022/05/10 04:52:26;;;;;;;61.83;30.65;;;;;;;;;;4981612;28;20264;-75
2022/05/10 04:54:52;;;;;;;56.30;31.02;;;;;;;;;;4988048;28;20025;-75
2022/05/10 04:57:17;;;;;;;60.45;29.35;;;;;;;;;;4984462;28;20042;-73
2022/05/10 04:59:42;;;;;;;62.65;29.13;;;;;;;;;;4982236;28;20480;-73
2022/05/10 05:02:07;;;;;;;59.87;31.33;;;;;;;;;;4987067;28;20092;-73
2022/05/10 05:04:32;;;;;;;56.78;29.52;;;;;;;;;;4991365;28;20259;-73
2022/05/10 05:06:57;;;;;;;62.40;30.10;;;;;;;;;;4984772;28;20081;-74
2022/05/10 05:09:23;;;;;;;62.90;30.33;;;;;;;;;;4989065;28;20525;-74
2022/05/10 05:11:48;;;;;;;60.50;28.40;;;;;;;;;;4968187;28;20295;-73
2022/05/10 05:14:13;;;;;;;59.63;28.88;;;;;;;;;;4988846;28;20260;-73
2022/05/10 05:16:38;;;;;;;61.08;29.73;;;;;;;;;;4990769;28;20057;-73
2022/05/10 05:19:03;;;;;;;64.33;30.30;;;;;;;;;;4986763;28;20030;-73
2022/05/10 05:21:29;;;;;;;58.30;28.50;;;;;;;;;;4990713;28;20263;-74
2022/05/10 05:23:54;;;;;;;59.23;28.67;;;;;;;;;;4987893;28;20034;-72
2022/05/10 05:26:19;;;;;;;54.00;27.17;;;;;;;;;;4986271;28;20788;-73
2022/05/10 05:28:44;;;;;;;57.95;30.70;;;;;;;;;;4985596;28;20290;-75
2022/05/10 05:31:11;;;;;;;62.30;30.20;;;;;;;;;;4980939;28;20392;-73
2022/05/10 05:33:36;;;;;;;64.30;30.52;;;;;;;;;;4984601;28;20425;-73
2022/05/10 05:36:02;;;;;;;56.47;28.50;;;;;;;;;;4985184;28;20027;-72
2022/05/10 05:38:27;;;;;;;60.42;31.27;;;;;;;;;;4985640;28;20304;-73
2022/05/10 05:40:52;;;;;;;56.30;30.13;;;;;;;;;;4987576;28;20051;-72
2022/05/10 05:43:18;;;;;;;58.00;28.08;;;;;;;;;;4982814;28;20035;-73
2022/05/10 05:45:43;;;;;;;54.20;29.40;;;;;;;;;;4980871;28;20037;-73
2022/05/10 05:48:09;;;;;;;60.05;34.33;;;;;;;;;;4981056;28;20018;-73
2022/05/10 05:50:35;;;;;;;56.35;27.90;;;;;;;;;;4985007;28;20461;-72
2022/05/10 05:53:00;;;;;;;55.53;29.20;;;;;;;;;;4985644;28;20462;-71
2022/05/10 05:55:25;;;;;;;58.53;31.70;;;;;;;;;;4986520;28;20026;-72
2022/05/10 05:57:50;;;;;;;62.83;31.48;;;;;;;;;;4986418;28;20112;-75
2022/05/10 06:00:21;;;;;;;65.27;34.17;;;;;;;;;;4987450;28;20042;-72
2022/05/10 06:02:46;;;;;;;67.63;35.50;;;;;;;;;;4985205;28;20037;-72
2022/05/10 06:05:12;;;;;;;65.97;30.10;;;;;;;;;;4985431;28;20025;-71
2022/05/10 06:07:37;;;;;;;63.97;32.83;;;;;;;;;;4987276;28;20501;-72
2022/05/10 06:10:03;;;;;;;59.05;34.30;;;;;;;;;;4986149;28;20050;-72
2022/05/10 06:12:28;;;;;;;63.50;33.03;;;;;;;;;;4966150;28;20014;-73
2022/05/10 06:14:53;;;;;;;58.07;34.00;;;;;;;;;;4986626;28;20473;-71
2022/05/10 06:17:18;;;;;;;52.85;31.17;;;;;;;;;;4982951;28;20029;-75
2022/05/10 06:19:44;;;;;;;58.33;33.77;;;;;;;;;;4982193;28;20030;-75
2022/05/10 06:22:10;;;;;;;63.78;33.08;;;;;;;;;;4986145;28;20529;-73
2022/05/10 06:24:36;;;;;;;66.90;38.30;;;;;;;;;;4986609;28;20033;-74
2022/05/10 06:27:01;;;;;;;59.78;33.35;;;;;;;;;;4981870;28;20030;-73
2022/05/10 06:29:27;;;;;;;64.80;36.13;;;;;;;;;;4986241;28;20022;-74
2022/05/10 06:31:52;;;;;;;57.75;34.70;;;;;;;;;;4985480;28;20041;-72
2022/05/10 06:34:17;;;;;;;61.08;35.25;;;;;;;;;;4983670;28;20463;-72
2022/05/10 06:36:43;;;;;;;56.83;35.80;;;;;;;;;;4985637;28;20092;-70
2022/05/10 06:39:08;;;;;;;53.80;34.17;;;;;;;;;;4987118;28;20057;-70
2022/05/10 06:41:34;;;;;;;54.43;33.93;;;;;;;;;;4987157;28;20049;-70
2022/05/10 06:43:59;;;;;;;56.15;35.42;;;;;;;;;;4982213;28;20096;-70
2022/05/10 06:46:25;;;;;;;53.38;31.73;;;;;;;;;;4985559;28;20034;-71
2022/05/10 06:48:50;;;;;;;54.65;34.08;;;;;;;;;;4980278;28;20073;-71
2022/05/10 06:51:17;;;;;;;56.30;32.63;;;;;;;;;;4985975;28;20093;-71
2022/05/10 06:53:42;;;;;;;45.78;31.70;;;;;;;;;;4985899;28;20264;-72
2022/05/10 06:56:08;;;;;;;45.58;30.05;;;;;;;;;;4985255;28;20038;-72
2022/05/10 06:58:33;;;;;;;49.90;29.00;;;;;;;;;;4985719;28;20098;-71
2022/05/10 07:00:58;;;;;;;42.20;29.08;;;;;;;;;;4985274;28;20112;-71
2022/05/10 07:03:32;;;;;;;45.75;29.88;;;;;;;;;;4984762;28;20089;-71
2022/05/10 07:05:57;;;;;;;41.50;24.75;;;;;;;;;;4986030;28;20041;-71
2022/05/10 07:08:22;;;;;;;42.13;25.80;;;;;;;;;;4983401;28;20460;-72
2022/05/10 07:10:47;;;;;;;45.00;26.93;;;;;;;;;;4980512;28;20376;-71
2022/05/10 07:13:20;;;;;;;43.40;24.17;;;;;;;;;;4984841;28;20061;-71
2022/05/10 07:15:46;;;;;;;42.47;25.27;;;;;;;;;;4986126;28;20260;-69
2022/05/10 07:18:12;;;;;;;45.47;27.55;;;;;;;;;;4982987;28;20762;-71
2022/05/10 07:20:37;;;;;;;40.95;27.10;;;;;;;;;;4985748;28;20117;-71
2022/05/10 07:23:02;;;;;;;37.15;25.77;;;;;;;;;;4983746;28;20034;-69
2022/05/10 07:25:28;;;;;;;37.83;26.23;;;;;;;;;;4967606;28;20042;-70
2022/05/10 07:27:54;;;;;;;36.72;24.98;;;;;;;;;;4982434;28;20025;-73
2022/05/10 07:30:20;;;;;;;39.90;26.35;;;;;;;;;;4984568;28;20425;-72
2022/05/10 07:32:45;;;;;;;37.47;23.92;;;;;;;;;;4981156;28;20019;-69
2022/05/10 07:35:11;;;;;;;43.60;24.73;;;;;;;;;;4984684;28;20458;-70
2022/05/10 07:37:38;;;;;;;33.25;23.10;;;;;;;;;;4983096;28;20716;-71
2022/05/10 07:40:03;;;;;;;35.38;23.63;;;;;;;;;;4985211;28;20033;-71
2022/05/10 07:42:28;;;;;;;32.17;22.15;;;;;;;;;;4986665;28;20026;-70
2022/05/10 07:44:53;;;;;;;30.98;18.98;;;;;;;;;;4984971;28;20026;-70
2022/05/10 07:47:19;;;;;;;32.80;20.40;;;;;;;;;;4983555;28;20100;-72
2022/05/10 07:49:44;;;;;;;31.30;20.40;;;;;;;;;;4985323;28;20134;-70
2022/05/10 07:52:09;;;;;;;33.30;20.43;;;;;;;;;;4984551;28;20272;-71
2022/05/10 07:54:35;;;;;;;25.92;18.15;;;;;;;;;;4982011;28;20046;-70
2022/05/10 07:57:00;;;;;;;25.90;16.92;;;;;;;;;;4984273;28;20030;-71
2022/05/10 07:59:28;;;;;;;27.23;19.50;;;;;;;;;;4989814;28;20072;-71
2022/05/10 08:01:53;;;;;;;26.90;18.13;;;;;;;;;;4985593;28;20037;-70
2022/05/10 08:04:18;;;;;;;25.45;18.17;;;;;;;;;;4982877;28;20030;-70
2022/05/10 08:06:46;;;;;;;31.10;19.40;;;;;;;;;;4984048;28;20432;-70
2022/05/10 08:09:11;;;;;;;25.50;16.23;;;;;;;;;;4984699;28;20010;-71
2022/05/10 08:11:36;;;;;;;25.27;17.40;;;;;;;;;;4984969;28;20021;-70
2022/05/10 08:14:01;;;;;;;28.97;16.13;;;;;;;;;;4981049;28;20081;-71
2022/05/10 08:16:31;;;;;;;25.70;17.67;;;;;;;;;;4985860;28;20045;-72
2022/05/10 08:18:56;;;;;;;29.67;17.38;;;;;;;;;;4986171;28;20037;-70
2022/05/10 08:21:21;;;;;;;21.52;17.02;;;;;;;;;;4986541;28;20038;-71
2022/05/10 08:23:49;;;;;;;23.15;15.73;;;;;;;;;;4988036;28;20034;-74
2022/05/10 08:26:14;;;;;;;19.27;16.35;;;;;;;;;;4984815;28;20031;-70
2022/05/10 08:28:39;;;;;;;21.38;15.38;;;;;;;;;;4989337;28;20026;-71
2022/05/10 08:31:06;;;;;;;20.67;14.73;;;;;;;;;;4987654;28;20045;-72
2022/05/10 08:33:32;;;;;;;23.23;15.25;;;;;;;;;;4981262;28;20105;-69
2022/05/10 08:35:58;;;;;;;18.30;13.27;;;;;;;;;;4986543;28;20127;-70
2022/05/10 08:38:23;;;;;;;43.83;15.55;;;;;;;;;;4987406;28;20050;-71
2022/05/10 08:40:54;;;;;;;19.85;13.20;;;;;;;;;;4986507;28;20034;-70
2022/05/10 08:43:21;;;;;;;22.17;14.27;;;;;;;;;;4988497;28;20042;-72
2022/05/10 08:45:47;;;;;;;17.67;14.43;;;;;;;;;;4988222;28;20473;-70
2022/05/10 08:48:12;;;;;;;18.55;12.30;;;;;;;;;;4985535;28;20045;-70
2022/05/10 08:50:39;;;;;;;21.70;13.13;;;;;;;;;;4987180;28;20022;-70
2022/05/10 08:53:05;;;;;;;18.38;12.75;;;;;;;;;;4970711;28;20351;-71
2022/05/10 08:55:31;;;;;;;20.40;12.73;;;;;;;;;;4986928;28;20022;-70
2022/05/10 08:57:59;;;;;;;18.85;12.18;;;;;;;;;;4988674;28;20076;-72
2022/05/10 09:00:27;;;;;;;17.30;12.48;;;;;;;;;;4985311;28;20030;-70
2022/05/10 09:02:54;;;;;;;13.15;9.88;;;;;;;;;;4987841;28;20018;-71
2022/05/10 09:05:26;;;;;;;14.15;11.35;;;;;;;;;;4983816;28;20421;-72
2022/05/10 09:08:00;;;;;;;18.67;11.10;;;;;;;;;;4987597;28;20050;-71
2022/05/10 09:11:04;;;;;;;19.13;13.60;;;;;;;;;;4979852;28;20137;-72
2022/05/10 09:13:29;;;;;;;16.30;12.63;;;;;;;;;;4913067;29;20351;-71
2022/05/10 09:16:05;;;;;;;17.52;11.32;;;;;;;;;;4917774;29;20051;-71
2022/05/10 09:18:36;;;;;;;16.98;12.57;;;;;;;;;;4950392;28;20125;-69
2022/05/10 09:21:22;;;;;;;22.92;12.18;;;;;;;;;;4986688;28;20477;-70
2022/05/10 09:23:59;;;;;;;15.10;10.10;;;;;;;;;;4988594;28;20049;-71
2022/05/10 09:26:30;;;;;;;16.83;11.50;;;;;;;;;;4984593;28;20026;-71
2022/05/10 09:28:55;;;;;;;41.33;11.32;;;;;;;;;;4988554;28;20029;-71
2022/05/10 09:36:52;;;;;;;27.58;9.88;;;;;;;;;;4983773;28;20511;-69
2022/05/10 09:39:33;;;;;;;17.67;9.97;;;;;;;;;;4985604;28;20034;-70
2022/05/10 09:41:58;;;;;;;14.90;10.77;;;;;;;;;;4986486;28;20291;-71
2022/05/10 09:44:26;;;;;;;13.35;10.63;;;;;;;;;;4987616;28;20029;-71
2022/05/10 09:47:08;;;;;;;30.75;9.55;;;;;;;;;;4982146;28;20030;-71
2022/05/10 09:49:34;;;;;;;14.43;9.70;;;;;;;;;;4987817;28;20010;-71
2022/05/10 09:51:59;;;;;;;18.20;8.75;;;;;;;;;;4985469;28;20449;-72
2022/05/10 09:54:51;;;;;;;93.57;15.82;;;;;;;;;;4987564;28;20024;-71
2022/05/10 09:57:30;;;;;;;16.38;8.80;;;;;;;;;;4982389;28;20607;-71
2022/05/10 09:59:55;;;;;;;16.83;8.15;;;;;;;;;;4985766;28;20031;-70
2022/05/10 10:02:25;;;;;;;14.25;8.73;;;;;;;;;;4985684;28;20029;-71
2022/05/10 10:04:50;;;;;;;17.17;8.52;;;;;;;;;;4969396;28;20034;-71
2022/05/10 10:07:16;;;;;;;10.80;7.97;;;;;;;;;;4984613;28;20057;-71
2022/05/10 10:09:47;;;;;;;12.80;7.65;;;;;;;;;;4985810;28;20367;-72
2022/05/10 10:12:26;;;;;;;11.48;7.90;;;;;;;;;;4982917;28;20116;-68
2022/05/10 10:14:51;;;;;;;21.17;8.07;;;;;;;;;;4990499;28;20499;-70
2022/05/10 10:17:28;;;;;;;23.67;8.47;;;;;;;;;;4977881;28;20216;-71
2022/05/10 10:19:56;;;;;;;17.75;7.50;;;;;;;;;;4986752;28;20034;-71
2022/05/10 10:22:30;;;;;;;15.38;8.52;;;;;;;;;;4974382;28;20125;-70
2022/05/10 10:25:13;;;;;;;19.20;8.27;;;;;;;;;;4982622;28;20141;-70
2022/05/10 10:27:59;;;;;;;13.90;7.68;;;;;;;;;;4979810;28;20045;-70
2022/05/10 10:30:36;;;;;;;12.35;7.90;;;;;;;;;;4981032;28;20076;-73
2022/05/10 10:33:07;;;;;;;16.33;7.22;;;;;;;;;;4981689;28;20122;-71
2022/05/10 10:35:40;;;;;;;17.85;8.15;;;;;;;;;;4983769;28;20022;-70
2022/05/10 10:38:11;;;;;;;16.15;8.25;;;;;;;;;;4980119;28;20034;-72
2022/05/10 10:40:39;;;;;;;17.42;7.22;;;;;;;;;;4982638;28;20050;-68
2022/05/10 10:43:26;;;;;;;16.98;7.97;;;;;;;;;;4984242;28;20026;-71
2022/05/10 10:45:54;;;;;;;25.40;9.32;;;;;;;;;;4980447;28;20030;-71
2022/05/10 10:48:25;;;;;;;24.73;10.25;;;;;;;;;;4979487;28;20437;-71
2022/05/10 10:50:51;;;;;;;14.77;8.20;;;;;;;;;;4980245;28;20552;-69
2022/05/10 10:53:16;;;;;;;18.25;8.20;;;;;;;;;;4980628;28;20038;-68
2022/05/10 10:55:44;;;;;;;15.37;8.27;;;;;;;;;;4981461;28;20376;-70
2022/05/10 10:58:18;;;;;;;11.43;7.60;;;;;;;;;;4982253;28;20355;-71
2022/05/10 11:01:02;;;;;;;14.65;7.85;;;;;;;;;;4982044;28;20033;-70
2022/05/10 11:03:31;;;;;;;13.18;7.20;;;;;;;;;;4980813;28;20034;-69
2022/05/10 11:06:02;;;;;;;20.73;8.18;;;;;;;;;;4978368;28;20045;-70
2022/05/10 11:08:34;;;;;;;17.80;7.50;;;;;;;;;;4977588;28;20014;-72
2022/05/10 11:11:21;;;;;;;18.92;7.32;;;;;;;;;;4963514;28;20034;-72
2022/05/10 11:14:05;;;;;;;16.33;6.53;;;;;;;;;;4976454;28;20387;-71
2022/05/10 11:16:43;;;;;;;16.63;6.28;;;;;;;;;;4982521;28;20448;-71
2022/05/10 11:19:11;;;;;;;11.40;5.75;;;;;;;;;;4976716;28;20045;-69
2022/05/10 11:21:54;;;;;;;12.90;6.45;;;;;;;;;;4982659;28;20027;-73
2022/05/10 11:24:32;;;;;;;15.07;6.25;;;;;;;;;;4982367;28;20061;-71
2022/05/10 11:27:05;;;;;;;10.48;6.18;;;;;;;;;;4981894;28;21646;-73
2022/05/10 11:29:31;;;;;;;8.23;6.28;;;;;;;;;;4954798;28;20022;-73
2022/05/10 11:32:05;;;;;;;13.50;5.68;;;;;;;;;;4984444;28;20064;-69
2022/05/10 11:34:30;;;;;;;10.40;5.70;;;;;;;;;;4976470;28;20027;-71
2022/05/10 11:36:59;;;;;;;15.02;6.30;;;;;;;;;;4976968;28;20026;-71
2022/05/10 11:39:30;;;;;;;12.60;6.43;;;;;;;;;;4980647;28;20512;-72
2022/05/10 11:41:56;;;;;;;10.73;6.50;;;;;;;;;;4983151;28;20042;-71
2022/05/10 11:44:33;;;;;;;11.45;6.30;;;;;;;;;;4986679;28;20034;-71
2022/05/10 11:47:04;;;;;;;14.07;6.22;;;;;;;;;;4975149;28;20054;-70
2022/05/10 11:49:47;;;;;;;14.73;7.20;;;;;;;;;;4976404;28;20480;-75
2022/05/10 11:52:28;;;;;;;10.40;6.50;;;;;;;;;;4982089;28;20421;-71
2022/05/10 11:54:56;;;;;;;14.75;6.25;;;;;;;;;;4983940;28;20093;-73
2022/05/10 11:57:22;;;;;;;12.70;6.15;;;;;;;;;;4981672;28;20327;-72
2022/05/10 11:59:48;;;;;;;14.35;6.90;;;;;;;;;;4981303;28;20042;-72
2022/05/10 12:02:41;;;;;;;12.82;7.13;;;;;;;;;;4984473;28;20034;-73
2022/05/10 12:05:09;;;;;;;12.00;6.88;;;;;;;;;;4977688;28;20030;-73
2022/05/10 12:07:41;;;;;;;9.10;6.35;;;;;;;;;;4983527;28;20516;-73
2022/05/10 12:10:26;;;;;;;11.10;7.70;;;;;;;;;;4982409;28;20014;-75
2022/05/10 12:12:52;;;;;;;10.35;6.72;;;;;;;;;;4981828;28;20475;-72
2022/05/10 12:21:19;;;;;;;9.88;7.22;;;;;;;;;;4984827;28;20033;-74
2022/05/10 12:24:03;;;;;;;14.88;6.93;;;;;;;;;;4983520;28;20026;-73
2022/05/10 12:26:32;;;;;;;9.52;6.32;;;;;;;;;;4981037;28;20023;-74
2022/05/10 12:28:57;;;;;;;12.35;6.43;;;;;;;;;;4980604;28;20044;-74
2022/05/10 12:31:23;;;;;;;10.60;5.63;;;;;;;;;;4968022;28;20520;-74
2022/05/10 12:34:08;;;;;;;7.38;5.82;;;;;;;;;;4968080;28;20060;-74
2022/05/10 12:36:38;;;;;;;6.57;5.88;;;;;;;;;;4985267;28;20034;-80
2022/05/10 12:39:18;;;;;;;13.45;6.43;;;;;;;;;;4981331;28;20019;-75
2022/05/10 12:41:46;;;;;;;15.15;6.78;;;;;;;;;;4965947;28;20092;-71
2022/05/10 12:44:30;;;;;;;10.25;5.50;;;;;;;;;;4983264;28;20030;-74
2022/05/10 12:46:55;;;;;;;;;;;;;;;;;;4979097;28;20034;-73
2022/05/10 12:49:26;;;;;;;8.00;5.40;;;;;;;;;;4985014;28;19913;-75
2022/05/10 12:52:02;;;;;;;12.70;5.72;;;;;;;;;;4980357;28;20455;-73
2022/05/10 12:54:38;;;;;;;18.33;7.05;;;;;;;;;;4984400;28;20045;-76
2022/05/10 12:57:06;;;;;;;14.13;6.18;;;;;;;;;;4977693;28;20343;-75
2022/05/10 12:59:34;;;;;;;12.20;5.47;;;;;;;;;;4963879;28;20027;-73
2022/05/10 13:02:01;;;;;;;813.80;102.00;;;;;;;;;;4983068;28;20030;-71
2022/05/10 13:04:30;;;;;;;11.52;5.47;;;;;;;;;;4981996;28;20034;-73
2022/05/10 13:07:17;;;;;;;8.65;5.70;;;;;;;;;;4984294;28;20102;-71
2022/05/10 13:09:42;;;;;;;13.82;6.38;;;;;;;;;;4982128;28;20026;-73
2022/05/10 13:12:08;;;;;;;7.87;5.50;;;;;;;;;;4966877;28;20037;-71
2022/05/10 13:14:35;;;;;;;7.40;6.27;;;;;;;;;;4985896;28;20366;-72
2022/05/10 13:17:00;;;;;;;17.30;6.78;;;;;;;;;;4978477;28;20034;-72
2022/05/10 13:19:27;;;;;;;8.82;5.78;;;;;;;;;;4982608;28;20077;-73
2022/05/10 13:21:52;;;;;;;9.07;5.72;;;;;;;;;;4983329;28;20038;-72
2022/05/10 13:24:19;;;;;;;7.85;5.93;;;;;;;;;;4979832;28;20116;-72
2022/05/10 13:27:01;;;;;;;9.80;5.70;;;;;;;;;;4980799;28;20618;-72
2022/05/10 13:29:48;;;;;;;14.55;6.05;;;;;;;;;;4981723;28;20028;-72
2022/05/10 13:32:26;;;;;;;10.18;5.45;;;;;;;;;;4981051;28;21404;-69
2022/05/10 13:34:51;;;;;;;12.15;6.43;;;;;;;;;;4964715;28;20037;-71
2022/05/10 13:37:21;;;;;;;9.70;5.43;;;;;;;;;;4980543;28;20026;-72
2022/05/10 13:39:46;;;;;;;9.27;5.45;;;;;;;;;;4981213;28;20077;-71
2022/05/10 13:42:12;;;;;;;8.67;5.87;;;;;;;;;;4982133;28;20034;-75
2022/05/10 13:44:40;;;;;;;9.18;5.85;;;;;;;;;;4983813;28;20034;-71
2022/05/10 13:47:05;;;;;;;9.23;5.93;;;;;;;;;;4976660;28;20081;-71
2022/05/10 13:49:34;;;;;;;16.60;7.03;;;;;;;;;;4984795;28;20059;-71
2022/05/10 13:52:03;;;;;;;9.98;6.32;;;;;;;;;;4979141;28;20363;-73
2022/05/10 13:54:38;;;;;;;9.63;6.15;;;;;;;;;;4984746;28;20067;-73
2022/05/10 13:57:11;;;;;;;8.77;6.13;;;;;;;;;;4983113;28;20105;-71
2022/05/10 13:59:36;;;;;;;8.20;5.55;;;;;;;;;;4978340;28;20030;-71
2022/05/10 14:02:11;;;;;;;11.07;5.93;;;;;;;;;;4980569;28;20758;-72
2022/05/10 14:04:45;;;;;;;12.35;6.45;;;;;;;;;;4979134;28;20030;-73
2022/05/10 14:07:12;;;;;;;10.98;6.05;;;;;;;;;;4982342;28;20030;-73
2022/05/10 14:09:40;;;;;;;9.10;5.68;;;;;;;;;;4982575;28;20575;-70
2022/05/10 14:12:11;;;;;;;9.73;6.00;;;;;;;;;;4980296;28;20026;-72
2022/05/10 14:14:36;;;;;;;11.52;6.05;;;;;;;;;;4979860;28;20165;-72
2022/05/10 14:17:03;;;;;;;15.60;6.22;;;;;;;;;;4976099;28;20101;-72
2022/05/10 14:19:33;;;;;;;12.13;5.70;;;;;;;;;;4982608;28;20033;-72
2022/05/10 14:22:01;;;;;;;10.95;5.88;;;;;;;;;;4977964;28;20572;-71
2022/05/10 14:24:26;;;;;;;7.15;5.93;;;;;;;;;;4959893;28;20030;-71
2022/05/10 14:27:04;;;;;;;8.95;5.20;;;;;;;;;;4984797;28;20030;-67
2022/05/10 14:29:35;;;;;;;7.88;5.47;;;;;;;;;;4983874;28;20065;-72
2022/05/10 14:32:03;;;;;;;13.80;6.68;;;;;;;;;;4987738;28;20022;-71
2022/05/10 14:34:48;;;;;;;17.25;6.05;;;;;;;;;;4990796;28;20032;-72
2022/05/10 14:37:49;;;;;;;20.70;6.43;;;;;;;;;;4985377;28;20026;-71
2022/05/10 14:40:25;;;;;;;13.85;5.75;;;;;;;;;;4906630;29;20123;-72
2022/05/10 14:42:58;;;;;;;7.03;5.05;;;;;;;;;;4970559;28;20038;-71
2022/05/10 14:45:24;;;;;;;13.50;6.65;;;;;;;;;;4992183;28;20026;-72
2022/05/10 14:47:49;;;;;;;11.93;6.03;;;;;;;;;;4982150;28;20034;-75
2022/05/10 14:50:28;;;;;;;11.18;6.45;;;;;;;;;;4982818;28;20290;-71
2022/05/10 14:53:12;;;;;;;17.00;6.60;;;;;;;;;;4980794;28;20034;-71